createdAt,value
2022-09-09T00:04:28.488Z,12.90
2022-09-09T00:09:39.699Z,12.86
2022-09-09T00:14:49.402Z,12.76
2022-09-09T00:19:56.926Z,12.76
2022-09-09T00:25:10.014Z,12.68
2022-09-09T00:30:18.158Z,12.52
2022-09-09T00:35:25.688Z,12.47
2022-09-09T00:40:33.782Z,12.54
2022-09-09T00:45:59.293Z,12.39
2022-09-09T00:51:11.821Z,12.34
2022-09-09T00:56:19.667Z,12.49
2022-09-09T01:01:21.903Z,12.50
2022-09-09T01:06:31.074Z,12.43
2022-09-09T01:11:44.159Z,12.40
2022-09-09T01:16:47.746Z,12.35
2022-09-09T01:21:56.475Z,12.37
2022-09-09T01:27:02.403Z,12.57
2022-09-09T01:32:39.009Z,12.52
2022-09-09T01:37:42.154Z,12.52
2022-09-09T01:42:44.355Z,12.33
2022-09-09T01:47:47.296Z,12.21
2022-09-09T01:52:56.043Z,12.16
2022-09-09T01:58:12.242Z,12.11
2022-09-09T02:03:25.024Z,12.14
2022-09-09T02:08:39.653Z,12.17
2022-09-09T02:13:44.161Z,12.23
2022-09-09T02:18:52.276Z,12.23
2022-09-09T02:24:00.328Z,12.13
2022-09-09T02:29:06.062Z,11.98
2022-09-09T02:34:11.646Z,12.04
2022-09-09T02:39:15.426Z,11.98
2022-09-09T02:44:19.246Z,12.13
2022-09-09T02:49:29.660Z,12.20
2022-09-09T02:54:34.868Z,12.16
2022-09-09T02:59:36.766Z,12.22
2022-09-09T03:04:38.568Z,12.13
2022-09-09T03:09:41.970Z,12.23
2022-09-09T03:14:44.006Z,12.16
2022-09-09T03:19:45.997Z,12.09
2022-09-09T03:24:49.455Z,12.11
2022-09-09T03:29:51.415Z,12.12
2022-09-09T03:34:53.539Z,11.90
2022-09-09T03:39:57.146Z,11.87
2022-09-09T03:44:59.261Z,11.76
2022-09-09T03:50:00.910Z,11.70
2022-09-09T03:55:05.423Z,11.78
2022-09-09T04:00:09.087Z,11.82
2022-09-09T04:05:10.800Z,11.67
2022-09-09T04:10:14.493Z,11.56
2022-09-09T04:15:16.473Z,11.52
2022-09-09T04:20:18.361Z,11.73
2022-09-09T04:25:21.856Z,11.72
2022-09-09T04:30:24.580Z,11.84
2022-09-09T04:35:26.580Z,11.90
2022-09-09T04:40:29.603Z,12.00
2022-09-09T04:45:31.504Z,12.00
2022-09-09T04:50:33.177Z,12.19
2022-09-09T04:55:36.231Z,12.22
2022-09-09T05:00:38.654Z,12.22
2022-09-09T05:05:40.719Z,12.25
2022-09-09T05:10:44.032Z,12.33
2022-09-09T05:15:52.859Z,12.38
2022-09-09T05:20:59.784Z,12.42
2022-09-09T05:26:03.831Z,12.45
2022-09-09T05:31:07.080Z,12.78
2022-09-09T05:36:11.257Z,13.42
2022-09-09T05:41:15.814Z,14.02
2022-09-09T05:46:19.406Z,14.44
2022-09-09T05:51:23.068Z,15.92
2022-09-09T05:56:28.404Z,15.28
2022-09-09T06:01:32.813Z,14.36
2022-09-09T06:06:36.728Z,14.14
2022-09-09T06:11:40.831Z,13.95
2022-09-09T06:16:43.116Z,13.77
2022-09-09T06:21:45.162Z,13.92
2022-09-09T06:26:48.110Z,13.96
2022-09-09T06:31:50.158Z,14.14
2022-09-09T06:36:52.208Z,14.23
2022-09-09T06:41:55.201Z,14.32
2022-09-09T06:46:57.215Z,14.46
2022-09-09T06:51:58.917Z,14.69
2022-09-09T06:57:11.150Z,14.91
2022-09-09T07:02:23.491Z,15.30
2022-09-09T07:07:25.196Z,15.68
2022-09-09T07:12:28.252Z,16.36
2022-09-09T07:17:30.398Z,17.08
2022-09-09T07:22:32.056Z,17.25
2022-09-09T07:27:35.238Z,17.60
2022-09-09T07:32:37.193Z,17.55
2022-09-09T07:37:39.164Z,17.64
2022-09-09T07:42:42.677Z,17.84
2022-09-09T07:47:44.665Z,18.10
2022-09-09T07:52:46.826Z,18.07
2022-09-09T07:57:49.834Z,18.15
2022-09-09T08:02:51.554Z,17.90
2022-09-09T08:07:53.230Z,18.28
2022-09-09T08:13:16.880Z,18.49
2022-09-09T08:18:19.429Z,18.81
2022-09-09T08:23:21.397Z,18.40
2022-09-09T08:28:24.698Z,18.38
2022-09-09T08:33:26.737Z,18.56
2022-09-09T08:38:28.415Z,18.35
2022-09-09T08:43:33.124Z,18.70
2022-09-09T08:48:52.532Z,18.46
2022-09-09T08:53:59.777Z,18.57
2022-09-09T08:59:04.100Z,18.76
2022-09-09T09:04:18.565Z,19.30
2022-09-09T09:09:29.388Z,19.43
2022-09-09T09:14:37.101Z,19.71
2022-09-09T09:19:41.474Z,20.12
2022-09-09T09:24:51.297Z,21.64
2022-09-09T09:30:21.483Z,23.50
2022-09-09T09:35:19.690Z,27.63
2022-09-09T09:40:22.909Z,28.28
2022-09-09T09:45:30.246Z,27.15
2022-09-09T09:50:32.842Z,22.82
2022-09-09T09:55:36.409Z,24.08
2022-09-09T10:00:49.185Z,23.95
2022-09-09T10:05:51.453Z,25.44
2022-09-09T10:11:03.462Z,26.00
2022-09-09T10:16:22.078Z,30.46
2022-09-09T10:21:37.839Z,28.48
2022-09-09T10:26:49.448Z,30.75
2022-09-09T10:32:03.419Z,28.29
2022-09-09T10:37:23.611Z,30.56
2022-09-09T10:42:31.780Z,30.41
2022-09-09T10:47:47.149Z,29.60
2022-09-09T10:53:01.409Z,28.53
2022-09-09T10:58:06.104Z,26.71
2022-09-09T11:03:20.006Z,26.47
2022-09-09T11:08:24.942Z,24.62
2022-09-09T11:13:36.615Z,25.48
2022-09-09T11:18:43.563Z,25.05
2022-09-09T11:23:52.961Z,24.49
2022-09-09T11:29:17.186Z,24.52
2022-09-09T11:34:32.663Z,25.08
2022-09-09T11:40:08.988Z,25.24
2022-09-09T11:45:20.405Z,24.58
2022-09-09T11:50:33.065Z,23.79
2022-09-09T11:55:36.003Z,23.16
2022-09-09T12:00:40.211Z,22.94
2022-09-09T12:05:46.905Z,23.06
2022-09-09T12:10:54.921Z,23.14
2022-09-09T12:15:58.039Z,22.96
2022-09-09T12:21:07.973Z,22.85
2022-09-09T12:26:29.388Z,23.05
2022-09-09T12:31:42.677Z,23.28
2022-09-09T12:36:54.579Z,23.04
2022-09-09T12:41:56.337Z,23.15
2022-09-09T12:47:01.904Z,23.20
2022-09-09T12:52:09.930Z,22.95
2022-09-09T12:57:13.639Z,22.76
2022-09-09T13:02:22.115Z,22.73
2022-09-09T13:07:25.451Z,22.49
2022-09-09T13:12:27.198Z,22.39
2022-09-09T13:17:28.947Z,23.47
2022-09-09T13:22:36.611Z,24.41
2022-09-09T13:27:41.337Z,24.86
2022-09-09T13:32:43.059Z,24.41
2022-09-09T13:37:46.224Z,24.92
2022-09-09T13:42:48.487Z,25.39
2022-09-09T13:47:50.866Z,26.07
2022-09-09T13:52:56.833Z,25.35
2022-09-09T13:58:00.564Z,24.90
2022-09-09T14:03:02.753Z,25.35
2022-09-09T14:08:06.805Z,25.52
2022-09-09T14:13:08.528Z,23.68
2022-09-09T14:18:12.394Z,23.19
2022-09-09T14:23:15.448Z,22.82
2022-09-09T14:28:20.508Z,22.86
2022-09-09T14:33:28.490Z,23.03
2022-09-09T14:38:33.945Z,23.36
2022-09-09T14:43:35.889Z,23.75
2022-09-09T14:48:38.444Z,23.71
2022-09-09T14:53:41.743Z,23.21
2022-09-09T14:58:44.265Z,23.18
2022-09-09T15:03:51.438Z,23.32
2022-09-09T15:08:55.016Z,23.21
2022-09-09T15:13:57.140Z,23.08
2022-09-09T15:19:00.570Z,22.95
2022-09-09T15:24:04.787Z,23.00
2022-09-09T15:29:07.066Z,23.24
2022-09-09T15:34:09.448Z,23.58
2022-09-09T15:39:14.398Z,23.48
2022-09-09T15:44:16.826Z,23.37
2022-09-09T15:49:20.397Z,23.40
2022-09-09T15:54:24.653Z,22.98
2022-09-09T15:59:28.480Z,22.82
2022-09-09T16:04:30.239Z,22.86
2022-09-09T16:09:34.333Z,23.19
2022-09-09T16:14:36.340Z,23.19
2022-09-09T16:19:38.253Z,23.35
2022-09-09T16:24:41.882Z,23.40
2022-09-09T16:29:43.770Z,23.20
2022-09-09T16:34:45.613Z,23.19
2022-09-09T16:39:48.656Z,23.19
2022-09-09T16:44:50.811Z,22.90
2022-09-09T16:49:52.529Z,22.78
2022-09-09T16:54:55.651Z,22.57
2022-09-09T16:59:57.566Z,22.36
2022-09-09T17:04:59.602Z,22.01
2022-09-09T17:10:02.905Z,21.53
2022-09-09T17:15:05.589Z,21.38
2022-09-09T17:20:09.513Z,20.85
2022-09-09T17:25:12.876Z,20.47
2022-09-09T17:30:15.127Z,20.15
2022-09-09T17:35:17.060Z,19.85
2022-09-09T17:40:20.248Z,19.78
2022-09-09T17:45:21.993Z,19.75
2022-09-09T17:50:23.803Z,19.60
2022-09-09T17:55:27.515Z,19.48
2022-09-09T18:00:29.246Z,19.27
2022-09-09T18:05:30.875Z,19.03
2022-09-09T18:10:35.100Z,18.79
2022-09-09T18:15:49.253Z,18.55
2022-09-09T18:20:58.539Z,18.32
2022-09-09T18:26:01.730Z,18.06
2022-09-09T18:31:06.244Z,17.79
2022-09-09T18:36:09.510Z,17.48
2022-09-09T18:41:17.209Z,17.52
2022-09-09T18:46:19.741Z,17.49
2022-09-09T18:51:23.942Z,17.52
2022-09-09T18:56:27.424Z,17.39
2022-09-09T19:01:30.101Z,17.43
2022-09-09T19:06:33.474Z,17.39
2022-09-09T19:11:36.984Z,17.22
2022-09-09T19:16:40.694Z,17.13
2022-09-09T19:21:43.134Z,17.15
2022-09-09T19:26:48.321Z,17.23
2022-09-09T19:32:18.976Z,17.32
2022-09-09T19:37:18.650Z,17.25
2022-09-09T19:42:21.979Z,17.22
2022-09-09T19:47:23.793Z,17.20
2022-09-09T19:52:26.149Z,17.01
2022-09-09T19:57:29.565Z,16.96
2022-09-09T20:02:31.323Z,16.75
2022-09-09T20:07:33.009Z,16.69
2022-09-09T20:12:36.212Z,16.56
2022-09-09T20:17:38.324Z,16.50
2022-09-09T20:22:40.402Z,16.40
2022-09-09T20:27:43.568Z,16.33
2022-09-09T20:32:45.504Z,16.19
2022-09-09T20:37:47.270Z,15.97
2022-09-09T20:42:50.861Z,15.87
2022-09-09T20:47:52.505Z,15.63
2022-09-09T20:52:54.166Z,15.57
2022-09-09T20:57:57.487Z,15.39
2022-09-09T21:02:59.233Z,15.35
2022-09-09T21:08:00.880Z,15.40
2022-09-09T21:13:03.870Z,15.09
2022-09-09T21:18:06.044Z,14.85
2022-09-09T21:23:07.729Z,14.81
2022-09-09T21:28:11.384Z,14.65
2022-09-09T21:33:13.878Z,14.60
2022-09-09T21:38:17.310Z,14.55
2022-09-09T21:43:20.808Z,14.53
2022-09-09T21:48:22.566Z,14.53
2022-09-09T21:53:24.236Z,14.48
2022-09-09T21:58:27.291Z,14.44
2022-09-09T22:03:28.947Z,14.46
2022-09-09T22:08:30.723Z,14.55
2022-09-09T22:13:34.742Z,14.55
2022-09-09T22:18:36.509Z,14.54
2022-09-09T22:23:38.375Z,14.52
2022-09-09T22:28:41.572Z,14.43
2022-09-09T22:33:43.464Z,14.33
2022-09-09T22:38:45.124Z,14.30
2022-09-09T22:43:48.514Z,14.27
2022-09-09T22:48:50.525Z,14.31
2022-09-09T22:53:52.202Z,14.27
2022-09-09T22:58:56.796Z,14.24
2022-09-09T23:03:58.574Z,14.00
2022-09-09T23:09:02.243Z,13.76
2022-09-09T23:14:07.642Z,13.77
2022-09-09T23:19:12.068Z,13.68
2022-09-09T23:24:15.658Z,13.51
2022-09-09T23:29:18.674Z,13.44
2022-09-09T23:34:20.628Z,13.40
2022-09-09T23:39:22.565Z,13.27
2022-09-09T23:44:25.680Z,13.39
2022-09-09T23:49:27.360Z,13.50
2022-09-09T23:54:29.272Z,13.55
2022-09-09T23:59:32.279Z,13.46
